sensor_id;sensor_type;location;lat;lon;timestamp;temperature;humidity
7572;DHT22;3827;49.928;8.548;2022-07-29T00:01:08;20.30;99.90
7572;DHT22;3827;49.928;8.548;2022-07-29T00:03:34;20.20;99.90
7572;DHT22;3827;49.928;8.548;2022-07-29T00:06:01;20.10;99.90
7572;DHT22;3827;49.928;8.548;2022-07-29T00:08:28;20.20;99.90
7572;DHT22;3827;49.928;8.548;2022-07-29T00:10:55;20.10;99.90
7572;DHT22;3827;49.928;8.548;2022-07-29T00:13:23;20.20;99.90
7572;DHT22;3827;49.928;8.548;2022-07-29T00:15:50;20.00;99.90
7572;DHT22;3827;49.928;8.548;2022-07-29T00:18:17;20.00;99.90
7572;DHT22;3827;49.928;8.548;2022-07-29T00:20:44;20.00;99.90
7572;DHT22;3827;49.928;8.548;2022-07-29T00:23:10;20.00;99.90
7572;DHT22;3827;49.928;8.548;2022-07-29T00:25:37;20.10;99.90
7572;DHT22;3827;49.928;8.548;2022-07-29T00:28:04;20.10;99.90
7572;DHT22;3827;49.928;8.548;2022-07-29T00:30:32;20.10;99.90
7572;DHT22;3827;49.928;8.548;2022-07-29T00:32:59;20.10;99.90
7572;DHT22;3827;49.928;8.548;2022-07-29T00:35:26;20.10;99.90
7572;DHT22;3827;49.928;8.548;2022-07-29T00:38:10;20.10;99.90
7572;DHT22;3827;49.928;8.548;2022-07-29T00:40:38;20.10;99.90
7572;DHT22;3827;49.928;8.548;2022-07-29T00:43:05;20.10;99.90
7572;DHT22;3827;49.928;8.548;2022-07-29T00:45:33;20.10;99.90
7572;DHT22;3827;49.928;8.548;2022-07-29T00:48:01;20.00;99.90
7572;DHT22;3827;49.928;8.548;2022-07-29T00:50:29;20.10;99.90
7572;DHT22;3827;49.928;8.548;2022-07-29T00:52:55;20.10;99.90
7572;DHT22;3827;49.928;8.548;2022-07-29T00:55:22;20.10;99.90
7572;DHT22;3827;49.928;8.548;2022-07-29T00:57:49;20.20;99.90
7572;DHT22;3827;49.928;8.548;2022-07-29T01:00:19;20.20;99.90
7572;DHT22;3827;49.928;8.548;2022-07-29T01:02:47;20.30;99.90
7572;DHT22;3827;49.928;8.548;2022-07-29T01:05:16;20.40;99.90
7572;DHT22;3827;49.928;8.548;2022-07-29T01:07:44;20.40;99.90
7572;DHT22;3827;49.928;8.548;2022-07-29T01:10:13;20.40;99.90
7572;DHT22;3827;49.928;8.548;2022-07-29T01:12:42;20.50;99.90
7572;DHT22;3827;49.928;8.548;2022-07-29T01:15:10;20.50;99.90
7572;DHT22;3827;49.928;8.548;2022-07-29T01:17:42;20.50;99.90
7572;DHT22;3827;49.928;8.548;2022-07-29T01:20:17;20.50;99.90
7572;DHT22;3827;49.928;8.548;2022-07-29T01:23:11;20.50;99.90
7572;DHT22;3827;49.928;8.548;2022-07-29T01:25:48;20.50;99.90
7572;DHT22;3827;49.928;8.548;2022-07-29T01:28:41;20.50;99.90
7572;DHT22;3827;49.928;8.548;2022-07-29T01:31:16;20.50;99.90
7572;DHT22;3827;49.928;8.548;2022-07-29T01:33:48;20.50;99.90
7572;DHT22;3827;49.928;8.548;2022-07-29T01:36:20;20.50;99.90
7572;DHT22;3827;49.928;8.548;2022-07-29T01:38:54;20.40;99.90
7572;DHT22;3827;49.928;8.548;2022-07-29T01:41:24;20.40;99.90
7572;DHT22;3827;49.928;8.548;2022-07-29T01:43:57;20.40;99.90
7572;DHT22;3827;49.928;8.548;2022-07-29T01:46:28;20.40;99.90
7572;DHT22;3827;49.928;8.548;2022-07-29T01:48:59;20.40;99.90
7572;DHT22;3827;49.928;8.548;2022-07-29T01:51:33;20.40;99.90
7572;DHT22;3827;49.928;8.548;2022-07-29T01:54:05;20.40;99.90
7572;DHT22;3827;49.928;8.548;2022-07-29T01:56:35;20.40;99.90
7572;DHT22;3827;49.928;8.548;2022-07-29T01:59:06;20.40;99.90
7572;DHT22;3827;49.928;8.548;2022-07-29T02:01:35;20.30;99.90
7572;DHT22;3827;49.928;8.548;2022-07-29T02:04:03;20.30;99.90
7572;DHT22;3827;49.928;8.548;2022-07-29T02:06:33;20.20;99.90
7572;DHT22;3827;49.928;8.548;2022-07-29T02:09:02;20.20;99.90
7572;DHT22;3827;49.928;8.548;2022-07-29T02:11:31;20.10;99.90
7572;DHT22;3827;49.928;8.548;2022-07-29T02:14:00;20.10;99.90
7572;DHT22;3827;49.928;8.548;2022-07-29T02:16:31;20.00;99.90
7572;DHT22;3827;49.928;8.548;2022-07-29T02:19:01;19.90;99.90
7572;DHT22;3827;49.928;8.548;2022-07-29T02:21:29;19.90;99.90
7572;DHT22;3827;49.928;8.548;2022-07-29T02:23:59;20.00;99.90
7572;DHT22;3827;49.928;8.548;2022-07-29T02:26:27;20.00;99.90
7572;DHT22;3827;49.928;8.548;2022-07-29T02:28:57;19.90;99.90
7572;DHT22;3827;49.928;8.548;2022-07-29T02:31:28;19.90;99.90
7572;DHT22;3827;49.928;8.548;2022-07-29T02:33:58;19.90;99.90
7572;DHT22;3827;49.928;8.548;2022-07-29T02:36:27;19.80;99.90
7572;DHT22;3827;49.928;8.548;2022-07-29T02:38:55;19.90;99.90
7572;DHT22;3827;49.928;8.548;2022-07-29T02:41:28;19.80;99.90
7572;DHT22;3827;49.928;8.548;2022-07-29T02:43:56;19.80;99.90
7572;DHT22;3827;49.928;8.548;2022-07-29T02:46:29;19.80;99.90
7572;DHT22;3827;49.928;8.548;2022-07-29T02:49:02;19.70;99.90
7572;DHT22;3827;49.928;8.548;2022-07-29T02:51:35;19.60;99.90
7572;DHT22;3827;49.928;8.548;2022-07-29T02:54:07;19.60;99.90
7572;DHT22;3827;49.928;8.548;2022-07-29T02:56:36;19.60;99.90
7572;DHT22;3827;49.928;8.548;2022-07-29T02:59:09;19.80;99.90
7572;DHT22;3827;49.928;8.548;2022-07-29T03:01:40;19.50;99.90
7572;DHT22;3827;49.928;8.548;2022-07-29T03:04:10;19.40;99.90
7572;DHT22;3827;49.928;8.548;2022-07-29T03:06:38;19.30;99.90
7572;DHT22;3827;49.928;8.548;2022-07-29T03:09:07;19.30;99.90
7572;DHT22;3827;49.928;8.548;2022-07-29T03:11:35;19.20;99.90
7572;DHT22;3827;49.928;8.548;2022-07-29T03:14:03;19.10;99.90
7572;DHT22;3827;49.928;8.548;2022-07-29T03:16:32;19.10;99.90
7572;DHT22;3827;49.928;8.548;2022-07-29T03:19:03;19.00;99.90
7572;DHT22;3827;49.928;8.548;2022-07-29T03:21:31;19.00;99.90
7572;DHT22;3827;49.928;8.548;2022-07-29T03:23:58;19.00;99.90
7572;DHT22;3827;49.928;8.548;2022-07-29T03:26:25;18.90;99.90
7572;DHT22;3827;49.928;8.548;2022-07-29T03:28:52;18.90;99.90
7572;DHT22;3827;49.928;8.548;2022-07-29T03:31:19;18.90;99.90
7572;DHT22;3827;49.928;8.548;2022-07-29T03:33:46;18.80;99.90
7572;DHT22;3827;49.928;8.548;2022-07-29T03:36:13;18.80;99.90
7572;DHT22;3827;49.928;8.548;2022-07-29T03:38:42;18.80;99.90
7572;DHT22;3827;49.928;8.548;2022-07-29T03:41:11;18.70;99.90
7572;DHT22;3827;49.928;8.548;2022-07-29T03:43:41;18.60;99.90
7572;DHT22;3827;49.928;8.548;2022-07-29T03:46:10;18.60;99.90
7572;DHT22;3827;49.928;8.548;2022-07-29T03:48:44;18.50;99.90
7572;DHT22;3827;49.928;8.548;2022-07-29T03:51:13;18.50;99.90
7572;DHT22;3827;49.928;8.548;2022-07-29T03:53:41;18.40;99.90
7572;DHT22;3827;49.928;8.548;2022-07-29T03:56:09;18.30;99.90
7572;DHT22;3827;49.928;8.548;2022-07-29T03:58:37;18.20;99.90
7572;DHT22;3827;49.928;8.548;2022-07-29T04:01:06;18.20;99.90
7572;DHT22;3827;49.928;8.548;2022-07-29T04:03:33;18.20;99.90
7572;DHT22;3827;49.928;8.548;2022-07-29T04:06:02;18.00;99.90
7572;DHT22;3827;49.928;8.548;2022-07-29T04:08:31;18.00;99.90
7572;DHT22;3827;49.928;8.548;2022-07-29T04:10:59;17.90;99.90
7572;DHT22;3827;49.928;8.548;2022-07-29T04:13:26;17.80;99.90
7572;DHT22;3827;49.928;8.548;2022-07-29T04:15:53;17.80;99.90
7572;DHT22;3827;49.928;8.548;2022-07-29T04:18:20;17.80;99.90
7572;DHT22;3827;49.928;8.548;2022-07-29T04:20:47;17.80;99.90
7572;DHT22;3827;49.928;8.548;2022-07-29T04:23:14;17.80;99.90
7572;DHT22;3827;49.928;8.548;2022-07-29T04:25:42;17.80;99.90
7572;DHT22;3827;49.928;8.548;2022-07-29T04:28:10;17.80;99.90
7572;DHT22;3827;49.928;8.548;2022-07-29T04:30:37;17.90;99.90
7572;DHT22;3827;49.928;8.548;2022-07-29T04:33:06;17.90;99.90
7572;DHT22;3827;49.928;8.548;2022-07-29T04:35:35;17.90;99.90
7572;DHT22;3827;49.928;8.548;2022-07-29T04:38:02;17.90;99.90
7572;DHT22;3827;49.928;8.548;2022-07-29T04:40:29;17.90;99.90
7572;DHT22;3827;49.928;8.548;2022-07-29T04:42:56;17.90;99.90
7572;DHT22;3827;49.928;8.548;2022-07-29T04:45:24;17.90;99.90
7572;DHT22;3827;49.928;8.548;2022-07-29T04:47:51;17.90;99.90
7572;DHT22;3827;49.928;8.548;2022-07-29T04:50:18;17.90;99.90
7572;DHT22;3827;49.928;8.548;2022-07-29T04:52:45;17.90;99.90
7572;DHT22;3827;49.928;8.548;2022-07-29T04:55:12;17.80;99.90
7572;DHT22;3827;49.928;8.548;2022-07-29T04:57:39;18.00;99.90
7572;DHT22;3827;49.928;8.548;2022-07-29T05:00:07;18.00;99.90
7572;DHT22;3827;49.928;8.548;2022-07-29T05:02:35;18.00;99.90
7572;DHT22;3827;49.928;8.548;2022-07-29T05:05:03;18.00;99.90
7572;DHT22;3827;49.928;8.548;2022-07-29T05:07:30;18.10;99.90
7572;DHT22;3827;49.928;8.548;2022-07-29T05:09:56;18.10;99.90
7572;DHT22;3827;49.928;8.548;2022-07-29T05:12:23;18.10;99.90
7572;DHT22;3827;49.928;8.548;2022-07-29T05:14:50;18.20;99.90
7572;DHT22;3827;49.928;8.548;2022-07-29T05:17:17;18.20;99.90
7572;DHT22;3827;49.928;8.548;2022-07-29T05:19:45;18.30;99.90
7572;DHT22;3827;49.928;8.548;2022-07-29T05:22:12;18.30;99.90
7572;DHT22;3827;49.928;8.548;2022-07-29T05:24:39;18.40;99.90
7572;DHT22;3827;49.928;8.548;2022-07-29T05:27:06;18.50;99.90
7572;DHT22;3827;49.928;8.548;2022-07-29T05:29:33;18.60;99.90
7572;DHT22;3827;49.928;8.548;2022-07-29T05:31:59;18.60;99.90
7572;DHT22;3827;49.928;8.548;2022-07-29T05:34:26;18.70;99.90
7572;DHT22;3827;49.928;8.548;2022-07-29T05:36:55;18.80;99.90
7572;DHT22;3827;49.928;8.548;2022-07-29T05:39:21;18.90;99.90
7572;DHT22;3827;49.928;8.548;2022-07-29T05:41:48;19.00;99.90
7572;DHT22;3827;49.928;8.548;2022-07-29T05:44:15;19.00;99.90
7572;DHT22;3827;49.928;8.548;2022-07-29T05:46:42;19.10;99.90
7572;DHT22;3827;49.928;8.548;2022-07-29T05:49:09;19.20;99.90
7572;DHT22;3827;49.928;8.548;2022-07-29T05:51:36;19.30;99.90
7572;DHT22;3827;49.928;8.548;2022-07-29T05:54:04;19.40;99.90
7572;DHT22;3827;49.928;8.548;2022-07-29T05:56:31;19.40;99.90
7572;DHT22;3827;49.928;8.548;2022-07-29T05:58:58;19.50;99.90
7572;DHT22;3827;49.928;8.548;2022-07-29T06:01:24;19.60;99.90
7572;DHT22;3827;49.928;8.548;2022-07-29T06:03:51;19.70;99.90
7572;DHT22;3827;49.928;8.548;2022-07-29T06:06:18;19.80;99.90
7572;DHT22;3827;49.928;8.548;2022-07-29T06:08:45;19.90;99.90
7572;DHT22;3827;49.928;8.548;2022-07-29T06:11:13;20.00;99.90
7572;DHT22;3827;49.928;8.548;2022-07-29T06:13:40;20.10;99.90
7572;DHT22;3827;49.928;8.548;2022-07-29T06:16:07;20.20;99.90
7572;DHT22;3827;49.928;8.548;2022-07-29T06:18:34;20.30;99.90
7572;DHT22;3827;49.928;8.548;2022-07-29T06:21:00;20.40;99.90
7572;DHT22;3827;49.928;8.548;2022-07-29T06:23:27;20.60;99.90
7572;DHT22;3827;49.928;8.548;2022-07-29T06:25:54;20.70;99.90
7572;DHT22;3827;49.928;8.548;2022-07-29T06:28:22;20.80;99.90
7572;DHT22;3827;49.928;8.548;2022-07-29T06:30:49;20.90;99.90
7572;DHT22;3827;49.928;8.548;2022-07-29T06:33:16;21.00;99.90
7572;DHT22;3827;49.928;8.548;2022-07-29T06:35:44;21.00;99.90
7572;DHT22;3827;49.928;8.548;2022-07-29T06:38:13;21.10;99.90
7572;DHT22;3827;49.928;8.548;2022-07-29T06:40:41;21.30;99.90
7572;DHT22;3827;49.928;8.548;2022-07-29T06:43:29;21.40;99.90
7572;DHT22;3827;49.928;8.548;2022-07-29T06:46:02;21.50;99.90
7572;DHT22;3827;49.928;8.548;2022-07-29T06:48:29;21.60;99.90
7572;DHT22;3827;49.928;8.548;2022-07-29T06:50:56;21.80;99.90
7572;DHT22;3827;49.928;8.548;2022-07-29T06:53:23;21.80;99.90
7572;DHT22;3827;49.928;8.548;2022-07-29T06:55:50;22.00;99.90
7572;DHT22;3827;49.928;8.548;2022-07-29T06:58:17;22.10;99.90
7572;DHT22;3827;49.928;8.548;2022-07-29T07:00:47;22.10;99.90
7572;DHT22;3827;49.928;8.548;2022-07-29T07:03:14;22.30;99.90
7572;DHT22;3827;49.928;8.548;2022-07-29T07:05:41;22.40;99.90
7572;DHT22;3827;49.928;8.548;2022-07-29T07:08:08;22.50;99.90
7572;DHT22;3827;49.928;8.548;2022-07-29T07:10:35;22.60;99.90
7572;DHT22;3827;49.928;8.548;2022-07-29T07:13:02;22.70;99.90
7572;DHT22;3827;49.928;8.548;2022-07-29T07:15:30;22.90;99.90
7572;DHT22;3827;49.928;8.548;2022-07-29T07:17:58;23.00;99.90
7572;DHT22;3827;49.928;8.548;2022-07-29T07:20:25;23.00;99.90
7572;DHT22;3827;49.928;8.548;2022-07-29T07:22:52;23.20;99.90
7572;DHT22;3827;49.928;8.548;2022-07-29T07:25:19;23.30;99.90
7572;DHT22;3827;49.928;8.548;2022-07-29T07:27:46;23.20;99.90
7572;DHT22;3827;49.928;8.548;2022-07-29T07:30:13;23.20;99.90
7572;DHT22;3827;49.928;8.548;2022-07-29T07:32:40;23.30;99.90
7572;DHT22;3827;49.928;8.548;2022-07-29T07:35:09;23.40;99.90
7572;DHT22;3827;49.928;8.548;2022-07-29T07:37:36;23.50;99.90
7572;DHT22;3827;49.928;8.548;2022-07-29T07:40:04;23.60;99.90
7572;DHT22;3827;49.928;8.548;2022-07-29T07:42:31;23.50;99.90
7572;DHT22;3827;49.928;8.548;2022-07-29T07:44:58;23.70;99.90
7572;DHT22;3827;49.928;8.548;2022-07-29T07:47:25;23.90;99.90
7572;DHT22;3827;49.928;8.548;2022-07-29T07:49:52;24.10;99.90
7572;DHT22;3827;49.928;8.548;2022-07-29T07:52:21;24.10;99.90
7572;DHT22;3827;49.928;8.548;2022-07-29T07:54:49;24.20;99.90
7572;DHT22;3827;49.928;8.548;2022-07-29T07:57:16;24.40;99.90
7572;DHT22;3827;49.928;8.548;2022-07-29T07:59:43;24.50;99.90
7572;DHT22;3827;49.928;8.548;2022-07-29T08:02:10;24.50;99.90
7572;DHT22;3827;49.928;8.548;2022-07-29T08:04:37;24.50;99.90
7572;DHT22;3827;49.928;8.548;2022-07-29T08:07:06;24.70;99.90
7572;DHT22;3827;49.928;8.548;2022-07-29T08:09:35;24.60;99.90
7572;DHT22;3827;49.928;8.548;2022-07-29T08:12:03;24.70;99.90
7572;DHT22;3827;49.928;8.548;2022-07-29T08:14:31;24.80;99.90
7572;DHT22;3827;49.928;8.548;2022-07-29T08:16:58;25.00;99.90
7572;DHT22;3827;49.928;8.548;2022-07-29T08:19:25;25.20;99.90
7572;DHT22;3827;49.928;8.548;2022-07-29T08:21:53;25.50;99.90
7572;DHT22;3827;49.928;8.548;2022-07-29T08:24:20;25.60;99.90
7572;DHT22;3827;49.928;8.548;2022-07-29T08:27:06;25.60;99.90
7572;DHT22;3827;49.928;8.548;2022-07-29T08:29:33;25.80;99.90
7572;DHT22;3827;49.928;8.548;2022-07-29T08:31:59;26.00;99.90
7572;DHT22;3827;49.928;8.548;2022-07-29T08:34:26;26.00;99.90
7572;DHT22;3827;49.928;8.548;2022-07-29T08:36:54;26.20;99.90
7572;DHT22;3827;49.928;8.548;2022-07-29T08:39:22;26.30;99.90
7572;DHT22;3827;49.928;8.548;2022-07-29T08:41:49;26.30;99.90
7572;DHT22;3827;49.928;8.548;2022-07-29T08:44:18;25.80;99.90
7572;DHT22;3827;49.928;8.548;2022-07-29T08:46:45;25.90;99.90
7572;DHT22;3827;49.928;8.548;2022-07-29T08:49:12;25.80;99.90
7572;DHT22;3827;49.928;8.548;2022-07-29T08:51:40;26.10;99.90
7572;DHT22;3827;49.928;8.548;2022-07-29T08:54:08;26.50;99.90
7572;DHT22;3827;49.928;8.548;2022-07-29T08:56:36;26.80;99.90
7572;DHT22;3827;49.928;8.548;2022-07-29T08:59:04;27.10;99.90
7572;DHT22;3827;49.928;8.548;2022-07-29T09:01:34;27.00;99.90
7572;DHT22;3827;49.928;8.548;2022-07-29T09:04:06;27.00;99.90
7572;DHT22;3827;49.928;8.548;2022-07-29T09:06:37;26.90;99.90
7572;DHT22;3827;49.928;8.548;2022-07-29T09:09:07;26.90;99.90
7572;DHT22;3827;49.928;8.548;2022-07-29T09:11:34;26.90;99.90
7572;DHT22;3827;49.928;8.548;2022-07-29T09:14:01;27.10;99.90
7572;DHT22;3827;49.928;8.548;2022-07-29T09:19:27;27.40;99.90
7572;DHT22;3827;49.928;8.548;2022-07-29T09:21:57;27.50;99.90
7572;DHT22;3827;49.928;8.548;2022-07-29T09:24:23;27.60;99.90
7572;DHT22;3827;49.928;8.548;2022-07-29T09:26:50;27.80;99.90
7572;DHT22;3827;49.928;8.548;2022-07-29T09:29:17;27.70;99.90
7572;DHT22;3827;49.928;8.548;2022-07-29T09:31:46;27.80;99.90
7572;DHT22;3827;49.928;8.548;2022-07-29T09:34:14;27.90;99.90
7572;DHT22;3827;49.928;8.548;2022-07-29T09:36:44;27.40;99.90
7572;DHT22;3827;49.928;8.548;2022-07-29T09:39:12;26.80;99.90
7572;DHT22;3827;49.928;8.548;2022-07-29T09:41:47;26.70;99.90
7572;DHT22;3827;49.928;8.548;2022-07-29T09:44:15;26.80;99.90
7572;DHT22;3827;49.928;8.548;2022-07-29T09:46:56;27.10;99.90
7572;DHT22;3827;49.928;8.548;2022-07-29T09:49:24;27.60;99.90
7572;DHT22;3827;49.928;8.548;2022-07-29T09:52:04;27.60;99.90
7572;DHT22;3827;49.928;8.548;2022-07-29T09:54:32;27.80;99.90
7572;DHT22;3827;49.928;8.548;2022-07-29T09:57:03;28.30;99.90
7572;DHT22;3827;49.928;8.548;2022-07-29T09:59:31;28.70;99.90
7572;DHT22;3827;49.928;8.548;2022-07-29T10:01:58;29.00;99.90
7572;DHT22;3827;49.928;8.548;2022-07-29T10:04:37;29.30;99.90
7572;DHT22;3827;49.928;8.548;2022-07-29T10:07:06;29.50;99.90
7572;DHT22;3827;49.928;8.548;2022-07-29T10:09:34;29.80;99.90
7572;DHT22;3827;49.928;8.548;2022-07-29T10:12:09;30.20;99.90
7572;DHT22;3827;49.928;8.548;2022-07-29T10:14:37;30.10;99.90
7572;DHT22;3827;49.928;8.548;2022-07-29T10:17:05;30.50;99.90
7572;DHT22;3827;49.928;8.548;2022-07-29T10:19:34;31.00;99.90
7572;DHT22;3827;49.928;8.548;2022-07-29T10:22:06;30.90;99.90
7572;DHT22;3827;49.928;8.548;2022-07-29T10:24:36;30.90;99.90
7572;DHT22;3827;49.928;8.548;2022-07-29T10:27:05;31.30;99.90
7572;DHT22;3827;49.928;8.548;2022-07-29T10:29:32;31.60;99.90
7572;DHT22;3827;49.928;8.548;2022-07-29T10:32:16;32.10;99.90
7572;DHT22;3827;49.928;8.548;2022-07-29T10:35:06;32.70;99.90
7572;DHT22;3827;49.928;8.548;2022-07-29T10:37:46;32.80;99.90
7572;DHT22;3827;49.928;8.548;2022-07-29T10:40:25;33.00;99.90
7572;DHT22;3827;49.928;8.548;2022-07-29T10:43:17;33.30;99.90
7572;DHT22;3827;49.928;8.548;2022-07-29T10:45:45;33.50;99.90
7572;DHT22;3827;49.928;8.548;2022-07-29T10:48:13;33.10;99.90
7572;DHT22;3827;49.928;8.548;2022-07-29T10:50:53;32.80;99.90
7572;DHT22;3827;49.928;8.548;2022-07-29T10:53:20;33.20;99.90
7572;DHT22;3827;49.928;8.548;2022-07-29T10:55:51;33.60;99.90
7572;DHT22;3827;49.928;8.548;2022-07-29T10:58:19;33.60;99.90
7572;DHT22;3827;49.928;8.548;2022-07-29T11:00:47;33.40;99.90
7572;DHT22;3827;49.928;8.548;2022-07-29T11:03:43;33.50;99.90
7572;DHT22;3827;49.928;8.548;2022-07-29T11:06:11;33.60;99.90
7572;DHT22;3827;49.928;8.548;2022-07-29T11:08:37;33.60;99.90
7572;DHT22;3827;49.928;8.548;2022-07-29T11:11:36;34.00;99.90
7572;DHT22;3827;49.928;8.548;2022-07-29T11:14:07;34.00;99.90
7572;DHT22;3827;49.928;8.548;2022-07-29T11:16:59;33.00;99.90
7572;DHT22;3827;49.928;8.548;2022-07-29T11:19:27;33.30;99.90
7572;DHT22;3827;49.928;8.548;2022-07-29T11:21:54;31.70;99.90
7572;DHT22;3827;49.928;8.548;2022-07-29T11:24:22;31.70;99.90
7572;DHT22;3827;49.928;8.548;2022-07-29T11:27:14;32.00;99.90
7572;DHT22;3827;49.928;8.548;2022-07-29T11:29:53;33.20;99.90
7572;DHT22;3827;49.928;8.548;2022-07-29T11:32:21;33.70;99.90
7572;DHT22;3827;49.928;8.548;2022-07-29T11:34:49;34.40;99.90
7572;DHT22;3827;49.928;8.548;2022-07-29T11:37:23;34.60;99.90
7572;DHT22;3827;49.928;8.548;2022-07-29T11:40:16;35.20;99.90
7572;DHT22;3827;49.928;8.548;2022-07-29T11:42:47;35.00;99.90
7572;DHT22;3827;49.928;8.548;2022-07-29T11:45:19;34.80;99.90
7572;DHT22;3827;49.928;8.548;2022-07-29T11:47:53;34.40;99.90
7572;DHT22;3827;49.928;8.548;2022-07-29T11:50:30;34.80;99.90
7572;DHT22;3827;49.928;8.548;2022-07-29T11:52:57;34.40;99.90
7572;DHT22;3827;49.928;8.548;2022-07-29T11:55:27;34.30;99.90
7572;DHT22;3827;49.928;8.548;2022-07-29T11:57:59;34.20;99.90
7572;DHT22;3827;49.928;8.548;2022-07-29T12:00:30;34.20;99.90
7572;DHT22;3827;49.928;8.548;2022-07-29T12:02:59;34.80;99.90
7572;DHT22;3827;49.928;8.548;2022-07-29T12:05:37;35.40;99.90
7572;DHT22;3827;49.928;8.548;2022-07-29T12:08:13;34.90;99.90
7572;DHT22;3827;49.928;8.548;2022-07-29T12:10:42;34.80;99.90
7572;DHT22;3827;49.928;8.548;2022-07-29T12:13:11;33.30;99.90
7572;DHT22;3827;49.928;8.548;2022-07-29T12:15:39;32.60;99.90
7572;DHT22;3827;49.928;8.548;2022-07-29T12:18:17;32.70;99.90
7572;DHT22;3827;49.928;8.548;2022-07-29T12:20:46;33.00;99.90
7572;DHT22;3827;49.928;8.548;2022-07-29T12:23:14;33.30;99.90
7572;DHT22;3827;49.928;8.548;2022-07-29T12:25:43;32.80;99.90
7572;DHT22;3827;49.928;8.548;2022-07-29T12:28:13;32.60;99.90
7572;DHT22;3827;49.928;8.548;2022-07-29T12:30:43;30.80;99.90
7572;DHT22;3827;49.928;8.548;2022-07-29T12:33:16;30.80;99.90
7572;DHT22;3827;49.928;8.548;2022-07-29T12:35:45;31.50;99.90
7572;DHT22;3827;49.928;8.548;2022-07-29T12:38:12;32.40;99.90
7572;DHT22;3827;49.928;8.548;2022-07-29T12:40:40;33.20;99.90
7572;DHT22;3827;49.928;8.548;2022-07-29T12:43:13;34.70;99.90
7572;DHT22;3827;49.928;8.548;2022-07-29T12:45:43;35.40;99.90
7572;DHT22;3827;49.928;8.548;2022-07-29T12:48:11;35.40;99.90
7572;DHT22;3827;49.928;8.548;2022-07-29T12:50:53;36.10;99.90
7572;DHT22;3827;49.928;8.548;2022-07-29T12:53:20;34.50;99.90
7572;DHT22;3827;49.928;8.548;2022-07-29T12:55:48;33.10;99.90
7572;DHT22;3827;49.928;8.548;2022-07-29T12:58:29;33.60;99.90
7572;DHT22;3827;49.928;8.548;2022-07-29T13:01:07;35.20;99.90
7572;DHT22;3827;49.928;8.548;2022-07-29T13:03:43;34.10;99.90
7572;DHT22;3827;49.928;8.548;2022-07-29T13:06:32;34.90;99.90
7572;DHT22;3827;49.928;8.548;2022-07-29T13:09:01;35.20;99.90
7572;DHT22;3827;49.928;8.548;2022-07-29T13:11:29;35.20;99.90
7572;DHT22;3827;49.928;8.548;2022-07-29T13:13:58;36.00;99.90
7572;DHT22;3827;49.928;8.548;2022-07-29T13:16:25;36.20;99.90
7572;DHT22;3827;49.928;8.548;2022-07-29T13:19:07;35.90;99.90
7572;DHT22;3827;49.928;8.548;2022-07-29T13:21:34;36.40;99.90
7572;DHT22;3827;49.928;8.548;2022-07-29T13:24:01;36.30;99.90
7572;DHT22;3827;49.928;8.548;2022-07-29T13:26:28;36.10;99.90
7572;DHT22;3827;49.928;8.548;2022-07-29T13:28:55;34.80;99.90
7572;DHT22;3827;49.928;8.548;2022-07-29T13:31:23;35.40;99.90
7572;DHT22;3827;49.928;8.548;2022-07-29T13:33:50;34.90;99.90
7572;DHT22;3827;49.928;8.548;2022-07-29T13:36:17;34.70;99.90
7572;DHT22;3827;49.928;8.548;2022-07-29T13:38:44;34.70;99.90
7572;DHT22;3827;49.928;8.548;2022-07-29T13:41:11;35.50;99.90
7572;DHT22;3827;49.928;8.548;2022-07-29T13:43:37;36.00;99.90
7572;DHT22;3827;49.928;8.548;2022-07-29T13:46:04;35.20;99.90
7572;DHT22;3827;49.928;8.548;2022-07-29T13:48:33;33.70;99.90
7572;DHT22;3827;49.928;8.548;2022-07-29T13:50:59;34.80;99.90
7572;DHT22;3827;49.928;8.548;2022-07-29T13:53:26;35.20;99.90
7572;DHT22;3827;49.928;8.548;2022-07-29T13:55:54;34.50;99.90
7572;DHT22;3827;49.928;8.548;2022-07-29T13:58:21;34.40;99.90
7572;DHT22;3827;49.928;8.548;2022-07-29T14:00:48;34.50;99.90
7572;DHT22;3827;49.928;8.548;2022-07-29T14:03:15;34.40;99.90
7572;DHT22;3827;49.928;8.548;2022-07-29T14:05:43;34.30;99.90
7572;DHT22;3827;49.928;8.548;2022-07-29T14:08:11;33.90;99.90
7572;DHT22;3827;49.928;8.548;2022-07-29T14:10:38;33.40;99.90
7572;DHT22;3827;49.928;8.548;2022-07-29T14:13:05;33.90;99.90
7572;DHT22;3827;49.928;8.548;2022-07-29T14:15:32;34.30;99.90
7572;DHT22;3827;49.928;8.548;2022-07-29T14:17:59;33.40;99.90
7572;DHT22;3827;49.928;8.548;2022-07-29T14:20:25;33.40;99.90
7572;DHT22;3827;49.928;8.548;2022-07-29T14:22:55;32.90;99.90
7572;DHT22;3827;49.928;8.548;2022-07-29T14:25:23;32.50;99.90
7572;DHT22;3827;49.928;8.548;2022-07-29T14:27:49;32.40;99.90
7572;DHT22;3827;49.928;8.548;2022-07-29T14:30:18;31.90;99.90
7572;DHT22;3827;49.928;8.548;2022-07-29T14:32:45;31.50;99.90
7572;DHT22;3827;49.928;8.548;2022-07-29T14:35:12;31.50;99.90
7572;DHT22;3827;49.928;8.548;2022-07-29T14:37:39;31.00;99.90
7572;DHT22;3827;49.928;8.548;2022-07-29T14:40:09;30.70;99.90
7572;DHT22;3827;49.928;8.548;2022-07-29T14:42:36;30.10;99.90
7572;DHT22;3827;49.928;8.548;2022-07-29T14:45:04;29.50;99.90
7572;DHT22;3827;49.928;8.548;2022-07-29T14:47:31;28.90;99.90
7572;DHT22;3827;49.928;8.548;2022-07-29T14:49:58;28.90;99.90
7572;DHT22;3827;49.928;8.548;2022-07-29T14:52:25;28.70;99.90
7572;DHT22;3827;49.928;8.548;2022-07-29T14:54:52;28.70;99.90
7572;DHT22;3827;49.928;8.548;2022-07-29T14:57:20;28.50;99.90
7572;DHT22;3827;49.928;8.548;2022-07-29T14:59:47;28.70;99.90
7572;DHT22;3827;49.928;8.548;2022-07-29T15:02:14;28.60;99.90
7572;DHT22;3827;49.928;8.548;2022-07-29T15:04:40;28.50;99.90
7572;DHT22;3827;49.928;8.548;2022-07-29T15:07:07;28.50;99.90
7572;DHT22;3827;49.928;8.548;2022-07-29T15:09:34;28.80;99.90
7572;DHT22;3827;49.928;8.548;2022-07-29T15:12:01;29.50;99.90
7572;DHT22;3827;49.928;8.548;2022-07-29T15:14:30;30.10;99.90
7572;DHT22;3827;49.928;8.548;2022-07-29T15:16:58;29.90;99.90
7572;DHT22;3827;49.928;8.548;2022-07-29T15:19:25;30.00;99.90
7572;DHT22;3827;49.928;8.548;2022-07-29T15:21:52;30.20;99.90
7572;DHT22;3827;49.928;8.548;2022-07-29T15:24:19;30.00;99.90
7572;DHT22;3827;49.928;8.548;2022-07-29T15:26:46;29.30;99.90
7572;DHT22;3827;49.928;8.548;2022-07-29T15:29:13;28.60;99.90
7572;DHT22;3827;49.928;8.548;2022-07-29T15:31:41;28.80;99.90
7572;DHT22;3827;49.928;8.548;2022-07-29T15:34:09;28.90;99.90
7572;DHT22;3827;49.928;8.548;2022-07-29T15:36:35;29.00;99.90
7572;DHT22;3827;49.928;8.548;2022-07-29T15:39:02;28.70;99.90
7572;DHT22;3827;49.928;8.548;2022-07-29T15:41:29;28.40;99.90
7572;DHT22;3827;49.928;8.548;2022-07-29T15:43:56;28.40;99.90
7572;DHT22;3827;49.928;8.548;2022-07-29T15:46:23;28.60;99.90
7572;DHT22;3827;49.928;8.548;2022-07-29T15:49:09;29.30;99.90
7572;DHT22;3827;49.928;8.548;2022-07-29T15:51:35;29.30;99.90
7572;DHT22;3827;49.928;8.548;2022-07-29T15:54:03;29.20;99.90
7572;DHT22;3827;49.928;8.548;2022-07-29T15:56:30;29.10;99.90
7572;DHT22;3827;49.928;8.548;2022-07-29T15:58:57;29.00;99.90
7572;DHT22;3827;49.928;8.548;2022-07-29T16:01:24;28.40;99.90
7572;DHT22;3827;49.928;8.548;2022-07-29T16:03:52;28.30;99.90
7572;DHT22;3827;49.928;8.548;2022-07-29T16:06:21;27.90;99.90
7572;DHT22;3827;49.928;8.548;2022-07-29T16:08:47;27.40;99.90
7572;DHT22;3827;49.928;8.548;2022-07-29T16:11:14;27.10;99.90
7572;DHT22;3827;49.928;8.548;2022-07-29T16:13:41;27.00;99.90
7572;DHT22;3827;49.928;8.548;2022-07-29T16:16:08;26.60;99.90
7572;DHT22;3827;49.928;8.548;2022-07-29T16:18:35;26.30;99.90